createdAt,value
2022-08-14T00:02:03.610Z,6.50
2022-08-14T00:04:44.770Z,6.97
2022-08-14T00:10:01.843Z,6.75
2022-08-14T00:12:39.426Z,7.13
2022-08-14T00:15:13.331Z,6.55
2022-08-14T00:17:48.477Z,6.68
2022-08-14T00:20:35.939Z,6.90
2022-08-14T00:23:16.904Z,6.97
2022-08-14T00:25:58.581Z,6.53
2022-08-14T00:28:34.907Z,6.40
2022-08-14T00:31:04.818Z,6.47
2022-08-14T00:33:50.952Z,6.55
2022-08-14T00:36:37.588Z,6.47
2022-08-14T00:39:18.320Z,7.40
2022-08-14T00:41:47.761Z,6.50
2022-08-14T00:44:15.320Z,6.85
2022-08-14T00:47:02.482Z,6.20
2022-08-14T00:49:31.233Z,5.88
2022-08-14T00:52:05.712Z,6.28
2022-08-14T00:54:34.742Z,6.32
2022-08-14T00:57:03.150Z,6.32
2022-08-14T00:59:31.583Z,6.28
2022-08-14T01:02:01.033Z,6.63
2022-08-14T01:04:51.578Z,7.13
2022-08-14T01:07:21.828Z,6.93
2022-08-14T01:09:56.246Z,6.57
2022-08-14T01:12:29.590Z,6.75
2022-08-14T01:14:59.811Z,7.10
2022-08-14T01:17:50.718Z,7.18
2022-08-14T01:20:41.005Z,7.25
2022-08-14T01:23:16.613Z,7.55
2022-08-14T01:25:51.288Z,7.32
2022-08-14T01:28:46.920Z,6.82
2022-08-14T01:31:15.637Z,7.20
2022-08-14T01:35:15.922Z,7.93
2022-08-14T01:36:39.411Z,7.03
2022-08-14T01:39:16.164Z,7.93
2022-08-14T01:41:58.263Z,7.53
2022-08-14T01:44:33.122Z,7.70
2022-08-14T01:47:11.635Z,7.38
2022-08-14T01:49:46.575Z,7.60
2022-08-14T01:52:34.309Z,7.45
2022-08-14T01:55:18.502Z,7.25
2022-08-14T01:58:00.951Z,7.68
2022-08-14T02:00:36.377Z,7.00
2022-08-14T02:03:06.168Z,6.78
2022-08-14T02:05:38.510Z,7.37
2022-08-14T02:08:08.731Z,7.35
2022-08-14T02:10:47.426Z,7.30
2022-08-14T02:13:17.363Z,7.57
2022-08-14T02:15:45.788Z,7.40
2022-08-14T02:20:46.261Z,6.70
2022-08-14T02:23:14.935Z,7.45
2022-08-14T02:25:44.238Z,8.32
2022-08-14T02:28:56.888Z,7.32
2022-08-14T02:31:10.843Z,7.55
2022-08-14T02:33:42.905Z,7.70
2022-08-14T02:37:02.431Z,7.78
2022-08-14T02:38:58.856Z,7.75
2022-08-14T02:41:28.619Z,7.38
2022-08-14T02:44:00.925Z,7.40
2022-08-14T02:46:32.284Z,7.75
2022-08-14T02:49:06.529Z,7.78
2022-08-14T02:51:36.603Z,7.55
2022-08-14T02:54:07.245Z,8.07
2022-08-14T02:57:13.871Z,7.65
2022-08-14T02:59:33.837Z,8.77
2022-08-14T03:02:03.595Z,7.90
2022-08-14T03:04:32.558Z,8.48
2022-08-14T03:07:07.804Z,8.15
2022-08-14T03:10:24.354Z,8.55
2022-08-14T03:12:32.234Z,7.80
2022-08-14T03:15:06.493Z,8.25
2022-08-14T03:17:41.050Z,8.93
2022-08-14T03:20:22.861Z,7.93
2022-08-14T03:22:50.930Z,8.73
2022-08-14T03:25:22.281Z,9.57
2022-08-14T03:27:58.266Z,8.80
2022-08-14T03:30:39.255Z,9.35
2022-08-14T03:33:10.557Z,8.35
2022-08-14T03:36:05.655Z,8.88
2022-08-14T03:39:12.537Z,8.75
2022-08-14T03:41:23.160Z,8.40
2022-08-14T03:44:01.551Z,8.95
2022-08-14T03:46:54.461Z,9.23
2022-08-14T03:49:28.337Z,9.30
2022-08-14T03:52:00.415Z,9.40
2022-08-14T03:54:30.493Z,9.55
2022-08-14T03:57:02.984Z,9.68
2022-08-14T03:59:35.442Z,9.20
2022-08-14T04:02:04.675Z,9.48
2022-08-14T04:04:38.252Z,9.88
2022-08-14T04:07:06.697Z,10.50
2022-08-14T04:09:34.390Z,9.82
2022-08-14T04:12:02.962Z,9.25
2022-08-14T04:14:37.266Z,9.60
2022-08-14T04:17:05.879Z,9.25
2022-08-14T04:19:39.177Z,9.18
2022-08-14T04:22:06.810Z,9.57
2022-08-14T04:24:37.965Z,9.57
2022-08-14T04:27:17.069Z,9.88
2022-08-14T04:29:45.451Z,9.80
2022-08-14T04:33:00.016Z,9.88
2022-08-14T04:35:07.165Z,10.00
2022-08-14T04:38:36.925Z,9.98
2022-08-14T04:41:16.078Z,10.02
2022-08-14T04:43:43.580Z,9.73
2022-08-14T04:46:56.956Z,11.00
2022-08-14T04:49:07.952Z,11.63
2022-08-14T04:51:46.625Z,10.32
2022-08-14T04:54:20.858Z,10.90
2022-08-14T04:56:51.794Z,10.63
2022-08-14T04:59:23.093Z,10.20
2022-08-14T05:01:56.356Z,9.40
2022-08-14T05:04:25.244Z,9.80
2022-08-14T05:06:55.346Z,9.70
2022-08-14T05:09:28.945Z,10.70
2022-08-14T05:12:59.316Z,9.57
2022-08-14T05:14:53.715Z,9.02
2022-08-14T05:17:32.019Z,9.05
2022-08-14T05:21:55.431Z,9.07
2022-08-14T05:23:00.092Z,9.00
2022-08-14T05:25:31.926Z,10.00
2022-08-14T05:28:29.171Z,8.60
2022-08-14T05:30:58.875Z,8.25
2022-08-14T05:33:31.135Z,9.57
2022-08-14T05:36:03.642Z,9.55
2022-08-14T05:38:39.903Z,8.50
2022-08-14T05:41:13.025Z,7.55
2022-08-14T05:43:41.970Z,8.18
2022-08-14T05:46:15.392Z,7.97
2022-08-14T05:48:43.842Z,7.82
2022-08-14T05:51:13.494Z,8.63
2022-08-14T05:53:42.311Z,9.00
2022-08-14T05:56:09.866Z,8.35
2022-08-14T05:58:41.212Z,8.88
2022-08-14T06:01:10.273Z,8.82
2022-08-14T06:03:40.227Z,8.05
2022-08-14T06:06:08.087Z,8.93
2022-08-14T06:08:41.511Z,8.63
2022-08-14T06:11:09.521Z,9.38
2022-08-14T06:13:45.318Z,8.77
2022-08-14T06:16:18.235Z,9.25
2022-08-14T06:18:52.393Z,8.82
2022-08-14T06:21:23.922Z,9.52
2022-08-14T06:23:52.185Z,8.13
2022-08-14T06:26:20.482Z,8.75
2022-08-14T06:28:52.377Z,8.73
2022-08-14T06:31:22.698Z,8.68
2022-08-14T06:35:02.970Z,10.23
2022-08-14T06:36:39.468Z,8.98
2022-08-14T06:39:10.440Z,8.98
2022-08-14T06:41:57.592Z,10.40
2022-08-14T06:44:30.633Z,8.90
2022-08-14T06:47:02.789Z,8.77
2022-08-14T06:49:43.471Z,9.23
2022-08-14T06:52:15.113Z,7.97
2022-08-14T06:54:43.471Z,10.52
2022-08-14T06:57:12.275Z,9.25
2022-08-14T06:59:41.154Z,8.30
2022-08-14T07:02:28.687Z,9.45
2022-08-14T07:05:20.822Z,10.45
2022-08-14T07:07:51.248Z,10.80
2022-08-14T07:10:18.467Z,10.93
2022-08-14T07:13:01.494Z,10.88
2022-08-14T07:15:34.113Z,11.02
2022-08-14T07:18:08.981Z,10.90
2022-08-14T07:20:38.306Z,11.13
2022-08-14T07:23:09.393Z,11.15
2022-08-14T07:25:42.306Z,11.43
2022-08-14T07:28:20.552Z,10.90
2022-08-14T07:30:50.935Z,11.25
2022-08-14T07:33:24.530Z,10.90
2022-08-14T07:36:00.630Z,10.25
2022-08-14T07:38:35.449Z,11.10
2022-08-14T07:41:11.782Z,10.63
2022-08-14T07:43:44.132Z,11.13
2022-08-14T07:46:21.234Z,10.95
2022-08-14T07:48:57.057Z,11.30
2022-08-14T07:51:24.644Z,10.50
2022-08-14T07:53:57.173Z,10.75
2022-08-14T07:56:47.968Z,10.90
2022-08-14T07:59:12.879Z,10.38
2022-08-14T08:01:51.461Z,12.65
2022-08-14T08:04:25.241Z,10.38
2022-08-14T08:06:55.163Z,9.98
2022-08-14T08:09:32.528Z,10.13
2022-08-14T08:12:04.803Z,11.38
2022-08-14T08:14:56.199Z,11.20
2022-08-14T08:17:24.087Z,11.32
2022-08-14T08:19:51.870Z,10.80
2022-08-14T08:22:21.889Z,10.65
2022-08-14T08:24:50.338Z,11.20
2022-08-14T08:27:22.280Z,10.95
2022-08-14T08:29:51.297Z,10.27
2022-08-14T08:32:19.290Z,9.80
2022-08-14T08:34:49.237Z,9.80
2022-08-14T08:37:16.754Z,9.75
2022-08-14T08:40:01.872Z,9.93
2022-08-14T08:42:44.736Z,10.20
2022-08-14T08:45:17.188Z,9.43
2022-08-14T08:47:46.461Z,11.38
2022-08-14T08:53:08.971Z,9.70
2022-08-14T08:55:42.501Z,10.95
2022-08-14T08:58:24.855Z,11.90
2022-08-14T09:00:55.811Z,9.43
2022-08-14T09:03:27.306Z,9.88
2022-08-14T09:05:56.527Z,10.10
2022-08-14T09:08:31.215Z,10.32
2022-08-14T09:11:20.929Z,10.13
2022-08-14T09:13:53.799Z,9.10
2022-08-14T09:16:26.325Z,9.70
2022-08-14T09:18:55.965Z,9.18
2022-08-14T09:21:24.954Z,9.48
2022-08-14T09:24:28.679Z,10.10
2022-08-14T09:26:49.224Z,10.25
2022-08-14T09:29:20.022Z,12.27
2022-08-14T09:31:57.471Z,14.30
2022-08-14T09:34:28.522Z,11.75
2022-08-14T09:37:14.035Z,10.43
2022-08-14T09:40:06.946Z,9.90
2022-08-14T09:42:59.134Z,9.73
2022-08-14T09:45:39.765Z,9.98
2022-08-14T09:48:27.930Z,9.60
2022-08-14T09:54:18.948Z,12.40
2022-08-14T09:56:56.914Z,11.60
2022-08-14T09:59:32.040Z,8.18
2022-08-14T10:01:59.979Z,7.72
2022-08-14T10:04:34.308Z,8.13
2022-08-14T10:07:06.308Z,8.02
2022-08-14T10:10:00.012Z,6.50
2022-08-14T10:12:44.722Z,7.95
2022-08-14T10:15:32.364Z,7.85
2022-08-14T10:18:17.326Z,8.93
2022-08-14T10:21:01.180Z,9.18
2022-08-14T10:23:43.159Z,9.25
2022-08-14T10:26:11.877Z,9.88
2022-08-14T10:29:18.373Z,10.38
2022-08-14T10:31:44.891Z,10.57
2022-08-14T10:34:19.040Z,8.65
2022-08-14T10:36:50.209Z,8.77
2022-08-14T10:39:30.271Z,8.13
2022-08-14T10:42:18.230Z,7.78
2022-08-14T10:44:52.576Z,9.18
2022-08-14T10:47:41.384Z,9.65
2022-08-14T10:50:12.097Z,9.55
2022-08-14T10:52:43.648Z,8.20
2022-08-14T10:55:17.438Z,8.20
2022-08-14T10:57:58.255Z,9.23
2022-08-14T11:00:30.192Z,11.40
2022-08-14T11:03:10.873Z,13.82
2022-08-14T11:05:44.045Z,14.57
2022-08-14T11:08:15.566Z,15.75
2022-08-14T11:10:56.712Z,11.02
2022-08-14T11:13:37.681Z,11.02
2022-08-14T11:16:05.030Z,14.23
2022-08-14T11:18:55.974Z,11.68
2022-08-14T11:21:30.060Z,11.48
2022-08-14T11:23:59.581Z,10.90
2022-08-14T11:26:30.150Z,13.23
2022-08-14T11:29:00.337Z,15.20
2022-08-14T11:31:38.792Z,16.42
2022-08-14T11:34:29.978Z,16.30
2022-08-14T11:37:03.938Z,15.82
2022-08-14T11:39:45.389Z,15.52
2022-08-14T11:42:56.484Z,16.33
2022-08-14T11:45:17.101Z,15.85
2022-08-14T11:48:13.488Z,16.95
2022-08-14T11:50:37.165Z,15.57
2022-08-14T11:53:08.745Z,15.27
2022-08-14T11:55:38.841Z,15.90
2022-08-14T11:58:15.559Z,16.07
2022-08-14T12:00:53.756Z,15.45
2022-08-14T12:03:27.233Z,15.45
2022-08-14T12:06:28.682Z,16.52
2022-08-14T12:09:00.152Z,15.20
2022-08-14T12:11:43.378Z,16.02
2022-08-14T12:14:30.277Z,16.83
2022-08-14T12:17:12.557Z,16.13
2022-08-14T12:19:51.062Z,16.10
2022-08-14T12:22:43.134Z,15.43
2022-08-14T12:25:20.349Z,14.82
2022-08-14T12:27:53.397Z,14.98
2022-08-14T12:30:39.367Z,13.05
2022-08-14T12:33:23.976Z,13.45
2022-08-14T12:35:56.342Z,13.80
2022-08-14T12:38:54.375Z,12.60
2022-08-14T12:41:24.140Z,13.40
2022-08-14T12:43:59.736Z,13.30
2022-08-14T12:46:35.037Z,12.50
2022-08-14T12:49:16.141Z,11.95
2022-08-14T12:51:55.617Z,10.80
2022-08-14T12:54:28.465Z,8.57
2022-08-14T12:57:04.936Z,6.00
2022-08-14T12:59:37.087Z,5.93
2022-08-14T13:02:26.351Z,4.78
2022-08-14T13:04:56.736Z,3.35
2022-08-14T13:07:32.051Z,2.50
2022-08-14T13:10:33.627Z,2.70
2022-08-14T13:13:12.613Z,2.90
2022-08-14T13:15:40.589Z,3.90
2022-08-14T13:18:10.656Z,4.72
2022-08-14T13:20:48.019Z,4.32
2022-08-14T13:23:19.504Z,4.60
2022-08-14T13:25:59.956Z,4.65
2022-08-14T13:28:32.727Z,4.63
2022-08-14T13:31:11.195Z,5.40
2022-08-14T13:33:43.123Z,4.45
2022-08-14T13:36:11.122Z,5.07
2022-08-14T13:38:53.474Z,5.07
2022-08-14T13:41:31.806Z,4.55
2022-08-14T13:44:04.906Z,4.60
2022-08-14T13:49:02.629Z,4.65
2022-08-14T13:51:36.231Z,4.88
2022-08-14T13:54:11.079Z,4.88
2022-08-14T13:56:42.214Z,4.38
2022-08-14T13:59:10.912Z,4.22
2022-08-14T14:01:43.594Z,3.95
2022-08-14T14:04:19.898Z,3.92
2022-08-14T14:07:00.870Z,4.10
2022-08-14T14:09:32.504Z,3.50
2022-08-14T14:12:37.510Z,3.58
2022-08-14T14:15:05.251Z,4.38
2022-08-14T14:17:35.778Z,3.58
2022-08-14T14:20:06.077Z,4.05
2022-08-14T14:22:35.743Z,3.50
2022-08-14T14:25:21.887Z,3.75
2022-08-14T14:27:53.634Z,3.80
2022-08-14T14:30:52.394Z,3.95
2022-08-14T14:33:44.093Z,4.85
2022-08-14T14:36:05.060Z,4.40
2022-08-14T14:38:34.124Z,5.50
2022-08-14T14:41:05.566Z,4.75
2022-08-14T14:43:37.177Z,5.75
2022-08-14T14:46:09.554Z,6.32
2022-08-14T14:48:46.675Z,6.18
2022-08-14T14:51:23.143Z,5.72
2022-08-14T14:53:52.606Z,6.15
2022-08-14T14:56:47.570Z,6.15
2022-08-14T14:59:08.916Z,5.50
2022-08-14T15:01:38.152Z,6.53
2022-08-14T15:04:20.080Z,5.80
2022-08-14T15:06:49.238Z,6.45
2022-08-14T15:09:17.562Z,8.27
2022-08-14T15:11:47.130Z,8.30
2022-08-14T15:14:56.122Z,6.60
2022-08-14T15:17:03.986Z,7.95
2022-08-14T15:19:32.111Z,20.50
2022-08-14T15:22:00.163Z,10.77
2022-08-14T15:24:27.379Z,6.65
2022-08-14T15:27:08.463Z,8.57
2022-08-14T15:29:43.635Z,6.80
2022-08-14T15:33:23.934Z,8.13
2022-08-14T15:35:51.375Z,5.60
2022-08-14T15:38:19.407Z,4.95
2022-08-14T15:40:51.613Z,7.43
2022-08-14T15:43:27.247Z,7.32
2022-08-14T15:45:56.491Z,4.93
2022-08-14T15:48:23.782Z,4.60
2022-08-14T15:50:51.678Z,4.70
2022-08-14T15:53:22.556Z,5.22
2022-08-14T15:55:54.782Z,6.00
2022-08-14T15:58:24.258Z,5.47
2022-08-14T16:01:12.937Z,4.85
2022-08-14T16:03:42.512Z,4.90
2022-08-14T16:06:21.089Z,5.50
2022-08-14T16:08:58.777Z,6.63
2022-08-14T16:11:28.870Z,8.40
2022-08-14T16:14:01.304Z,5.68
2022-08-14T16:16:47.379Z,6.43
2022-08-14T16:19:19.690Z,6.75
2022-08-14T16:22:02.060Z,6.43
2022-08-14T16:27:37.877Z,6.70
2022-08-14T16:30:24.415Z,6.38
2022-08-14T16:32:57.625Z,6.22
2022-08-14T16:35:43.185Z,6.80
2022-08-14T16:38:46.490Z,6.68
2022-08-14T16:40:24.278Z,7.05
2022-08-14T16:41:29.397Z,7.20
2022-08-14T16:44:01.829Z,6.95
2022-08-14T16:46:32.634Z,6.55
2022-08-14T16:49:00.998Z,7.38
2022-08-14T16:51:34.966Z,8.77
2022-08-14T16:54:21.112Z,8.23
2022-08-14T16:56:53.831Z,8.52
2022-08-14T16:59:30.595Z,7.78
2022-08-14T17:02:11.949Z,7.87
2022-08-14T17:04:43.008Z,7.63
2022-08-14T17:07:17.606Z,7.65
2022-08-14T17:09:49.075Z,7.63
2022-08-14T17:12:33.427Z,7.57
2022-08-14T17:15:10.732Z,9.38
2022-08-14T17:17:38.860Z,9.15
2022-08-14T17:20:39.367Z,8.68
2022-08-14T17:23:00.297Z,8.15
2022-08-14T17:25:37.400Z,8.05
2022-08-14T17:28:52.246Z,8.75
2022-08-14T17:31:08.893Z,6.85
2022-08-14T17:33:40.885Z,7.70
2022-08-14T17:36:24.598Z,7.18
2022-08-14T17:39:06.517Z,7.65
2022-08-14T17:42:03.069Z,7.68
2022-08-14T17:44:44.980Z,7.45
2022-08-14T17:47:18.018Z,7.55
2022-08-14T17:49:54.111Z,7.05
2022-08-14T17:52:34.339Z,7.40
2022-08-14T17:56:01.782Z,7.93
2022-08-14T17:58:20.761Z,7.63
2022-08-14T18:01:13.171Z,7.65
2022-08-14T18:03:50.987Z,8.32
2022-08-14T18:06:58.460Z,8.90
2022-08-14T18:09:37.589Z,8.68
2022-08-14T18:12:09.933Z,8.95
2022-08-14T18:14:59.362Z,8.90
2022-08-14T18:17:31.426Z,8.90
2022-08-14T18:20:01.343Z,9.02
2022-08-14T18:22:39.353Z,9.00
2022-08-14T18:25:18.493Z,8.10
2022-08-14T18:27:51.523Z,8.18
2022-08-14T18:30:31.636Z,8.07
2022-08-14T18:33:35.388Z,8.38
2022-08-14T18:36:47.645Z,8.10
2022-08-14T18:39:32.219Z,9.00
2022-08-14T18:42:23.417Z,9.20
2022-08-14T18:44:52.537Z,9.70
2022-08-14T18:47:22.805Z,9.38
2022-08-14T18:50:01.279Z,10.50
2022-08-14T18:52:34.482Z,10.65
2022-08-14T18:55:20.909Z,11.55
2022-08-14T18:57:57.610Z,10.82
2022-08-14T19:00:33.874Z,11.23
2022-08-14T19:03:04.892Z,11.25
2022-08-14T19:05:37.998Z,10.93
2022-08-14T19:08:22.227Z,10.70
2022-08-14T19:10:52.519Z,11.27
2022-08-14T19:13:51.349Z,10.88
2022-08-14T19:16:26.148Z,11.27
2022-08-14T19:19:00.210Z,11.40
2022-08-14T19:21:29.990Z,11.75
2022-08-14T19:24:26.780Z,11.73
2022-08-14T19:27:24.210Z,11.35
2022-08-14T19:30:20.117Z,10.65
2022-08-14T19:32:57.046Z,11.27
2022-08-14T19:35:48.688Z,11.77
2022-08-14T19:38:47.838Z,11.05
2022-08-14T19:41:21.471Z,11.05
2022-08-14T19:43:52.259Z,10.50
2022-08-14T19:46:39.441Z,10.25
2022-08-14T19:49:23.224Z,11.55
2022-08-14T19:52:05.217Z,11.40
2022-08-14T19:54:44.941Z,11.85
2022-08-14T19:57:38.599Z,10.82
2022-08-14T20:00:28.438Z,10.55
2022-08-14T20:03:10.585Z,10.73
2022-08-14T20:05:45.429Z,11.10
2022-08-14T20:11:01.313Z,10.05
2022-08-14T20:11:18.824Z,10.43
2022-08-14T20:14:10.412Z,10.27
2022-08-14T20:16:42.721Z,10.82
2022-08-14T20:19:14.254Z,10.07
2022-08-14T20:21:58.504Z,10.13
2022-08-14T20:24:42.923Z,10.68
2022-08-14T20:27:33.390Z,10.27
2022-08-14T20:30:33.615Z,10.77
2022-08-14T20:33:07.731Z,10.68
2022-08-14T20:35:43.573Z,12.35
2022-08-14T20:38:30.910Z,10.82
2022-08-14T20:41:00.877Z,11.27
2022-08-14T20:43:52.830Z,12.13
2022-08-14T20:46:30.045Z,10.65
2022-08-14T20:49:00.237Z,11.55
2022-08-14T20:51:47.722Z,11.55
2022-08-14T20:54:34.271Z,11.98
2022-08-14T20:57:11.867Z,11.27
2022-08-14T20:59:44.750Z,12.15
2022-08-14T21:02:34.306Z,11.25
2022-08-14T21:05:16.308Z,12.00
2022-08-14T21:07:51.113Z,12.00
2022-08-14T21:10:34.042Z,11.73
2022-08-14T21:14:09.153Z,12.57
2022-08-14T21:15:57.206Z,11.65
2022-08-14T21:18:32.591Z,12.70
2022-08-14T21:21:07.648Z,12.00
2022-08-14T21:23:53.837Z,12.82
2022-08-14T21:26:52.242Z,12.52
2022-08-14T21:29:19.581Z,11.98
2022-08-14T21:31:55.725Z,12.80
2022-08-14T21:34:31.777Z,12.60
2022-08-14T21:37:08.903Z,12.65
2022-08-14T21:39:38.272Z,12.68
2022-08-14T21:42:06.455Z,13.10
2022-08-14T21:44:42.734Z,12.02
2022-08-14T21:47:13.318Z,12.98
2022-08-14T21:49:46.346Z,12.93
2022-08-14T21:52:51.834Z,12.75
2022-08-14T21:55:10.357Z,12.35
2022-08-14T21:57:55.719Z,12.27
2022-08-14T22:00:36.504Z,12.57
2022-08-14T22:03:11.424Z,12.00
2022-08-14T22:05:40.744Z,13.70
2022-08-14T22:08:12.303Z,12.68
2022-08-14T22:10:44.666Z,13.75
2022-08-14T22:13:16.843Z,13.57
2022-08-14T22:15:50.041Z,13.73
2022-08-14T22:18:21.523Z,14.50
2022-08-14T22:20:54.039Z,14.40
2022-08-14T22:23:24.956Z,14.23
2022-08-14T22:25:55.271Z,14.32
2022-08-14T22:28:33.159Z,14.50
2022-08-14T22:31:09.902Z,15.52
2022-08-14T22:33:39.905Z,13.45
2022-08-14T22:36:27.140Z,13.82
2022-08-14T22:39:02.288Z,14.77
2022-08-14T22:41:32.633Z,14.73
2022-08-14T22:44:19.867Z,15.05
2022-08-14T22:46:49.608Z,15.27
2022-08-14T22:50:28.770Z,14.88
2022-08-14T22:52:33.110Z,14.20
2022-08-14T22:54:58.833Z,14.07
2022-08-14T22:57:27.185Z,13.63
2022-08-14T23:00:09.532Z,12.93
2022-08-14T23:02:37.290Z,14.77
2022-08-14T23:05:07.619Z,13.77
2022-08-14T23:09:01.753Z,13.38
2022-08-14T23:10:32.493Z,13.23
2022-08-14T23:13:02.584Z,12.73
2022-08-14T23:15:30.591Z,12.85
2022-08-14T23:17:58.365Z,12.95
2022-08-14T23:20:29.562Z,13.13
2022-08-14T23:22:57.835Z,12.55
2022-08-14T23:25:57.366Z,13.13
2022-08-14T23:28:34.846Z,12.65
2022-08-14T23:31:12.627Z,12.82
2022-08-14T23:33:51.918Z,12.93
2022-08-14T23:36:31.800Z,12.40
2022-08-14T23:39:12.296Z,13.23
2022-08-14T23:41:52.987Z,13.45
2022-08-14T23:44:23.906Z,13.32
2022-08-14T23:46:57.032Z,13.93
2022-08-14T23:49:31.988Z,13.30
2022-08-14T23:52:56.336Z,13.52
2022-08-14T23:55:06.551Z,13.63
2022-08-14T23:57:43.931Z,13.60
